• Join FlightAware (Why Join?)
  • Login
  • US Flag 
Rudolph Flight #1: Arrived! 
10:24PM EST


 

Airport Tracker/Info


-or-


 

Live Flight TrackerFlight Track Log ✈ DAL5298 ✈ 18-Oct-2013 ✈ KLGA - KOMA

Flight Track Log - Related Links

Times and Time Zones

All times are in EDT time to prevent confusion due to time zone crossing. See the DAL5298 flight status page for this flight to view local times or setup timezone preferences in your user account.

Time Position Orientation Groundspeed Altitude Reporting Facility
EDT Latitude Longitude Course Direction KTS MPH feet Rate Location/Type
05:56PM 40.7833 -73.8833 333° Northwest 144 166 1,100  Level New York TRACON
05:57PM 40.8333 -73.9167 333° Northwest 191 220 3,100 1,980 Climbing New York TRACON
05:58PM 40.8833 -73.9667 323° Northwest 239 275 5,300 2,460 Climbing New York TRACON
05:59PM 40.9167 -74.0500 298° West 242 278 8,100 2,820 Climbing New York TRACON
06:00PM 40.9167 -74.1500 270° West 255 293 11,000 2,520 Climbing New York TRACON
06:01PM 40.9167 -74.2333 270° West 256 295 13,200 2,400 Climbing New York TRACON
06:02PM 40.9167 -74.3333 270° West 261 300 15,900 1,680 Climbing New York TRACON
06:04PM 40.9192 -74.4425 272° West 277 319 17,100 540 Climbing New York Center
06:05PM 40.9192 -74.5717 270° West 309 356 17,100  Level New York Center
06:06PM 40.9194 -74.6897 270° West 348 400 17,100  Level New York Center
06:07PM 40.9186 -74.8353 270° West 361 415 17,100  Level New York Center
06:08PM 40.9181 -74.9725 270° West 366 421 17,100 900 Level New York Center
06:09PM 40.9181 -75.0906 270° West 366 421 19,000 1,860 Climbing New York Center
06:10PM 40.9072 -75.2161 264° West 360 414 20,900 1,800 Climbing New York Center
06:11PM 40.8769 -75.3514 254° West 355 409 22,600 1,320 Climbing New York Center
06:12PM 40.8492 -75.4731 253° West 355 409 23,600 960 Climbing New York Center
06:13PM 40.8192 -75.5969 252° West 355 409 24,600 960 Climbing New York Center
06:14PM 40.7889 -75.7236 253° West 355 409 25,600 900 Climbing New York Center
06:15PM 40.7636 -75.8342 253° West 355 409 26,400 900 Climbing New York Center
06:16PM 40.7331 -75.9581 252° West 355 409 27,400 1,020 Climbing New York Center
06:17PM 40.7108 -76.0850 257° West 355 409 28,500 1,020 Climbing New York Center
06:18PM 40.7258 -76.2147 279° West 345 397 29,500 900 Climbing New York Center
06:19PM 40.7408 -76.3394 279° West 345 397 30,300 780 Climbing New York Center
06:20PM 40.7556 -76.4667 279° West 356 410 31,100 720 Climbing New York Center
06:21PM 40.7722 -76.5942 280° West 356 410 31,800 660 Climbing New York Center
06:22PM 40.7867 -76.7214 279° West 350 403 32,500 660 Climbing New York Center
06:23PM 40.8014 -76.8461 279° West 355 409 33,200 660 Climbing New York Center
06:24PM 40.8156 -76.9736 278° West 355 409 33,900 660 Climbing New York Center
06:25PM 40.8297 -77.0983 279° West 355 409 34,600 660 Climbing New York Center
06:26PM 40.8422 -77.2175 278° West 350 403 35,300 660 Climbing New York Center
06:28PM 40.8761 -77.5033 279° West 328 377 37,000 600 Climbing Cleveland Center
06:29PM 40.8886 -77.6208 278° West 326 375 37,500 480 Climbing Cleveland Center
06:30PM 40.9033 -77.7594 278° West 321 369 38,000 240 Climbing Cleveland Center
06:31PM 40.9158 -77.8769 278° West 325 374 38,000  Level Cleveland Center
06:32PM 40.9283 -77.9983 278° West 334 384 38,000  Level Cleveland Center
06:33PM 40.9411 -78.1236 278° West 344 396 38,000  Level Cleveland Center
06:34PM 40.9561 -78.2628 278° West 356 410 38,000  Level Cleveland Center
06:35PM 40.9675 -78.3908 277° West 355 409 38,000  Level Cleveland Center
06:36PM 40.9839 -78.5269 279° West 371 427 38,000  Level Cleveland Center
06:37PM 40.9969 -78.6608 277° West 376 433 38,000  Level Cleveland Center
06:38PM 41.0103 -78.8200 276° West 374 430 38,000  Level Cleveland Center
06:39PM 41.0228 -78.9581 277° West 381 438 38,000  Level Cleveland Center
06:40PM 41.0328 -79.0914 276° West 369 425 38,000  Level Cleveland Center
06:42PM 41.0464 -79.2256 278° West 369 425 38,000  Level Cleveland Center
06:43PM 41.0578 -79.3594 276° West 368 423 38,000  Level Cleveland Center
06:44PM 41.0733 -79.5197 277° West 368 423 38,000  Level Cleveland Center
06:45PM 41.0853 -79.6522 277° West 366 421 38,000  Level Cleveland Center
06:46PM 41.0969 -79.7861 277° West 367 422 38,000  Level Cleveland Center
06:47PM 41.1083 -79.9211 276° West 370 426 38,000  Level Cleveland Center
06:48PM 41.1200 -80.0583 276° West 376 433 38,000  Level Cleveland Center
06:49PM 41.1347 -80.2233 277° West 378 435 38,000  Level Cleveland Center
06:50PM 41.1456 -80.3592 276° West 377 434 38,000  Level Cleveland Center
06:51PM 41.1572 -80.4956 277° West 372 428 38,000  Level Cleveland Center
06:52PM 41.1686 -80.6328 276° West 371 427 38,000  Level Cleveland Center
06:53PM 41.1786 -80.7714 276° West 373 429 38,000  Level Cleveland Center
06:54PM 41.1892 -80.9094 276° West 373 429 38,000  Level Cleveland Center
06:55PM 41.2014 -81.0694 276° West 370 426 38,000  Level Cleveland Center
06:56PM 41.2119 -81.2089 276° West 375 432 38,000  Level Cleveland Center
06:57PM 41.2222 -81.3456 276° West 369 425 38,000  Level Cleveland Center
06:58PM 41.2317 -81.4753 276° West 377 434 38,000  Level Cleveland Center
06:59PM 41.2414 -81.6122 275° West 374 430 38,000  Level Cleveland Center
07:00PM 41.2531 -81.7747 276° West 372 428 38,000  Level Cleveland Center
07:01PM 41.2622 -81.9128 275° West 374 430 38,000  Level Cleveland Center
07:02PM 41.2717 -82.0489 275° West 373 429 38,000  Level Cleveland Center
07:03PM 41.2811 -82.1861 275° West 371 427 38,000  Level Cleveland Center
07:04PM 41.2900 -82.3261 275° West 376 433 38,000  Level Cleveland Center
07:05PM 41.2986 -82.4639 275° West 373 429 38,000  Level Cleveland Center
07:06PM 41.3094 -82.6250 275° West 372 428 38,000  Level Cleveland Center
07:07PM 41.3172 -82.7631 274° West 372 428 38,000  Level Cleveland Center
07:08PM 41.3264 -82.9014 275° West 374 430 38,000  Level Cleveland Center
07:09PM 41.3342 -83.0403 274° West 373 429 38,000  Level Cleveland Center
07:10PM 41.3431 -83.1886 275° West 372 428 38,000  Level Cleveland Center
07:11PM 41.3508 -83.3281 274° West 375 432 38,000  Level Cleveland Center
07:13PM 41.3589 -83.4650 275° West 372 428 38,000  Level Cleveland Center
07:14PM 41.3656 -83.6033 274° West 374 430 38,000  Level Cleveland Center
07:15PM 41.3731 -83.7433 274° West 378 435 38,000  Level Cleveland Center
07:16PM 41.3803 -83.8808 274° West 375 432 38,000  Level Cleveland Center
07:17PM 41.3897 -84.0469 274° West 375 432 38,000  Level Cleveland Center
07:18PM 41.3961 -84.1847 274° West 374 430 38,000  Level Cleveland Center
07:18PM 41.4008 -84.2589 275° West 375 432 38,000  Level Chicago Center
07:19PM 41.4086 -84.4261 274° West 377 434 38,000  Level Chicago Center
07:20PM 41.4150 -84.5644 274° West 376 433 38,000  Level Chicago Center
07:21PM 41.4208 -84.7039 273° West 378 435 38,000  Level Chicago Center
07:23PM 41.4275 -84.8419 274° West 375 432 38,000  Level Chicago Center
07:24PM 41.4328 -84.9819 273° West 376 433 38,000  Level Chicago Center
07:25PM 41.4386 -85.1219 273° West 379 436 38,000  Level Chicago Center
07:26PM 41.4450 -85.2925 273° West 380 437 38,000  Level Chicago Center
07:27PM 41.4503 -85.4350 273° West 380 437 38,000  Level Chicago Center
07:28PM 41.4558 -85.5778 273° West 380 437 38,000  Level Chicago Center
07:29PM 41.4608 -85.7183 273° West 378 435 38,000  Level Chicago Center
07:30PM 41.4656 -85.8603 273° West 380 437 38,000  Level Chicago Center
07:31PM 41.4706 -86.0003 273° West 379 436 38,000  Level Chicago Center
07:32PM 41.4750 -86.1411 272° West 379 436 38,000  Level Chicago Center
07:33PM 41.4806 -86.3072 273° West 376 433 38,000  Level Chicago Center
07:34PM 41.4842 -86.4481 272° West 379 436 38,000  Level Chicago Center
07:35PM 41.4886 -86.5878 272° West 379 436 38,000  Level Chicago Center
07:36PM 41.4922 -86.7239 272° West 378 435 38,000  Level Chicago Center
07:37PM 41.4958 -86.8639 272° West 379 436 38,000  Level Chicago Center
07:38PM 41.5014 -87.0308 273° West 377 434 38,000  Level Chicago Center
07:39PM 41.5036 -87.1708 271° West 378 435 38,000  Level Chicago Center
07:40PM 41.5067 -87.3092 272° West 373 429 38,000  Level Chicago Center
07:41PM 41.5097 -87.4478 272° West 376 433 38,000  Level Chicago Center
07:42PM 41.5128 -87.5875 272° West 378 435 38,000  Level Chicago Center
07:43PM 41.5156 -87.7539 271° West 376 433 38,000  Level Chicago Center
07:44PM 41.5175 -87.8914 271° West 377 434 38,000  Level Chicago Center
07:45PM 41.5189 -88.0417 271° West 379 436 38,000  Level Chicago Center
07:46PM 41.5225 -88.1625 272° West 377 434 38,000  Level Chicago Center
07:47PM 41.5239 -88.3269 271° West 377 434 38,000  Level Chicago Center
07:48PM 41.5256 -88.4669 271° West 381 438 38,000  Level Chicago Center
07:49PM 41.5272 -88.6042 271° West 376 433 38,000  Level Chicago Center
07:50PM 41.5283 -88.7433 271° West 377 434 38,000  Level Chicago Center
07:52PM 41.5297 -88.9108 271° West 377 434 38,000  Level Chicago Center
07:53PM 41.5300 -89.0503 270° West 378 435 38,000  Level Chicago Center
07:54PM 41.5314 -89.1900 271° West 378 435 38,000  Level Chicago Center
07:55PM 41.5331 -89.3342 271° West 387 445 38,000  Level Chicago Center
07:56PM 41.5333 -89.4750 270° West 384 442 38,000  Level Chicago Center
07:57PM 41.5344 -89.6150 271° West 380 437 38,000  Level Chicago Center
07:58PM 41.5342 -89.7825 270° West 379 436 38,000  Level Chicago Center
07:59PM 41.5333 -89.9228 270° West 380 437 38,000  Level Chicago Center
08:00PM 41.5347 -90.0603 271° West 376 433 38,000  Level Chicago Center
08:01PM 41.5336 -90.2014 269° West 380 437 38,000  Level Chicago Center
08:02PM 41.5319 -90.3439 269° West 383 441 38,000  Level Chicago Center
08:03PM 41.5314 -90.4814 270° West 374 430 38,000  Level Chicago Center
08:04PM 41.5300 -90.6414 269° West 387 445 38,000  Level Chicago Center
08:05PM 41.5289 -90.7800 269° West 380 437 38,000  Level Chicago Center
08:06PM 41.5283 -90.9183 270° West 377 434 38,000  Level Chicago Center
08:07PM 41.5511 -91.0897 280° West 393 452 38,000  Level Chicago Center
08:08PM 41.5711 -91.2283 281° West 387 445 38,000  Level Chicago Center
08:09PM 41.5917 -91.3700 281° West 389 448 38,000 -300 Level Chicago Center
08:10PM 41.5967 -91.5117 273° West 389 448 37,500 -540 Descending Chicago Center
08:11PM 41.5956 -91.6569 269° West 394 453 37,000 -540 Descending Chicago Center
08:12PM 41.5939 -91.8367 269° West 405 466 36,500 -540 Descending Chicago Center
08:13PM 41.5922 -91.9806 269° West 394 453 35,900 -540 Descending Chicago Center
08:14PM 41.5903 -92.1203 269° West 383 441 35,400 -480 Descending Chicago Center
08:15PM 41.5886 -92.2558 269° West 371 427 35,000 -540 Descending Chicago Center
08:16PM 41.5864 -92.3964 269° West 378 435 34,400 -540 Descending Chicago Center
08:17PM 41.5833 -92.5708 269° West 394 453 34,000 -240 Descending Chicago Center
08:18PM 41.5806 -92.7175 269° West 397 457 34,000  Level Chicago Center
08:19PM 41.5778 -92.8542 268° West 392 451 34,000  Level Chicago Center
08:20PM 41.5758 -92.9983 269° West 392 451 34,000  Level Chicago Center
08:22PM 41.5711 -93.1725 268° West 395 455 34,000  Level Chicago Center
08:23PM 41.5678 -93.3181 268° West 398 458 34,000  Level Chicago Center
08:24PM 41.5650 -93.4628 269° West 397 457 34,000  Level Chicago Center
08:25PM 41.5614 -93.6089 268° West 398 458 34,000  Level Chicago Center
08:26PM 41.5569 -93.7564 268° West 401 461 34,000  Level Chicago Center
08:27PM 41.5517 -93.9319 268° West 400 460 34,000 -660 Level Chicago Center
08:28PM 41.5475 -94.0828 268° West 409 471 32,700 -1,860 Descending Chicago Center
08:29PM 41.5433 -94.2328 268° West 409 471 30,200 -2,460 Descending Chicago Center
08:30PM 41.5378 -94.3731 267° West 392 451 27,700 -2,400 Descending Chicago Center
08:31PM 41.5336 -94.5114 268° West 379 436 25,200 -2,640 Descending Chicago Center
08:32PM 41.5244 -94.7128 267° West 389 448 21,800 -2,400 Descending Minneapolis Center
08:33PM 41.5372 -94.8439 277° West 380 437 20,200 -1,860 Descending Minneapolis Center
08:33PM 41.5228 -94.8539 207° Southwest 382 440 19,900 -2,100 Descending Minneapolis Center
08:34PM 41.5317 -94.9392 278° West 372 428 18,700 -1,860 Descending Minneapolis Center
08:34PM 41.5186 -94.9917 252° West 374 430 18,000 -1,920 Descending Minneapolis Center
08:35PM 41.5242 -95.0908 274° West 380 437 16,800 -1,980 Descending Minneapolis Center
08:35PM 41.5133 -95.1319 251° West 378 435 16,000 -2,100 Descending Minneapolis Center
08:36PM 41.5067 -95.2267 265° West 374 430 14,700 -2,040 Descending Minneapolis Center
08:36PM 41.4900 -95.2667 241° Southwest 372 428 13,900 -2,100 Descending Minneapolis Center
08:37PM 41.4717 -95.3536 254° West 361 415 12,600 -1,980 Descending Minneapolis Center
08:37PM 41.4417 -95.3800 213° Southwest 364 419 11,900 -1,620 Descending Minneapolis Center
08:38PM 41.3994 -95.4572 234° Southwest 283 326 10,700 -1,500 Descending Minneapolis Center
08:38PM 41.3864 -95.4628 198° South 325 374 10,400 -2,040 Descending Minneapolis Center
08:39PM 41.3650 -95.5058 237° Southwest 248 285 9,300 -2,280 Descending Minneapolis Center
08:39PM 41.3275 -95.5453 218° Southwest 282 325 8,100 -1,920 Descending Minneapolis Center
08:40PM 41.3058 -95.5853 234° Southwest 238 274 7,000 -1,860 Descending Minneapolis Center
08:40PM 41.2850 -95.6067 218° Southwest 253 291 6,200 -1,920 Descending Minneapolis Center
08:41PM 41.2725 -95.6503 249° West 217 250 5,100 -1,860 Descending Minneapolis Center
08:41PM 41.2556 -95.6764 229° Southwest 230 265 4,300 -1,500 Descending Minneapolis Center
08:42PM 41.2436 -95.7175 249° West 205 236 3,600 -1,380 Descending Minneapolis Center
08:42PM 41.2325 -95.7406 237° Southwest 209 241 2,900 -840 Descending Minneapolis Center
08:43PM 41.2347 -95.7742 275° West 164 189 2,800 -300 Descending Minneapolis Center
08:43PM 41.2392 -95.7975 284° West 178 205 2,600 -720 Descending Minneapolis Center
08:44PM 41.2469 -95.8308 287° West 152 175 2,100 -720 Descending Minneapolis Center
08:44PM 41.2542 -95.8481 299° West 160 184 1,900 -600 Descending Minneapolis Center
08:45PM 41.2728 -95.8722 316° Northwest 130 150 1,500 -780 Descending Minneapolis Center
08:45PM 41.2894 -95.8828 335° Northwest 139 160 1,100 -660 Descending Minneapolis Center
08:47PM 41.3000 -95.8833 298° West  Level FlightAware Approximate
08:54PM 41.3032 -95.8941 298° West  Level Estimated